Time;durP1;ratioP1;P1;durP2;ratioP2;P2;SDS_P1;SDS_P2;PMS_P1;PMS_P2;Temp;Humidity;BMP_temperature;BMP_pressure;BME280_temperature;BME280_humidity;BME280_pressure;Samples;Min_cycle;Max_cycle;Signal;HPM_P1;HPM_P2
2021/11/25 00:01:11;;;;;;;9.77;5.17;;;8.80;99.90;;;;;;5003864;28;20178;-83
2021/11/25 00:03:39;;;;;;;8.45;4.70;;;8.80;99.90;;;;;;5002950;28;20432;-84
2021/11/25 00:06:07;;;;;;;8.85;4.70;;;8.70;99.90;;;;;;5035932;28;20193;-83
2021/11/25 00:08:43;;;;;;;;;;;;;;;;;;;;;
2021/11/25 00:11:18;;;;;;;8.15;4.55;;;8.70;99.90;;;;;;5020467;28;20215;-82
2021/11/25 00:13:47;;;;;;;7.65;4.32;;;8.70;99.90;;;;;;5018539;28;20175;-83
2021/11/25 00:16:12;;;;;;;11.23;4.90;;;8.70;99.90;;;;;;5036499;28;20194;-82
2021/11/25 00:18:40;;;;;;;5.90;4.83;;;8.70;99.90;;;;;;5018541;28;20692;-82
2021/11/25 00:21:10;;;;;;;7.70;3.42;;;8.70;99.90;;;;;;5018159;28;20177;-84
2021/11/25 00:23:41;;;;;;;7.18;3.85;;;8.70;99.90;;;;;;5017808;28;20177;-82
2021/11/25 00:26:10;;;;;;;6.75;3.90;;;8.70;99.90;;;;;;5017448;28;20201;-82
2021/11/25 00:28:45;;;;;;;5.43;3.40;;;8.60;99.90;;;;;;5016390;28;20601;-83
2021/11/25 00:31:11;;;;;;;6.05;3.70;;;8.70;99.90;;;;;;5016210;28;20248;-83
2021/11/25 00:33:40;;;;;;;6.93;3.40;;;8.70;99.90;;;;;;5034788;28;20653;-83
2021/11/25 00:36:06;;;;;;;5.53;3.75;;;8.70;99.90;;;;;;5019246;28;20204;-83
2021/11/25 00:38:32;;;;;;;5.28;3.45;;;8.70;99.90;;;;;;5036250;28;20200;-84
2021/11/25 00:40:58;;;;;;;4.57;3.30;;;8.70;99.90;;;;;;5036236;28;20188;-84
2021/11/25 00:43:27;;;;;;;6.37;3.60;;;8.70;99.90;;;;;;5018643;28;20173;-84
2021/11/25 00:45:55;;;;;;;5.00;3.60;;;8.60;99.90;;;;;;5019484;28;20447;-84
2021/11/25 00:48:21;;;;;;;6.18;3.47;;;8.70;99.90;;;;;;5018285;28;20201;-82
2021/11/25 00:50:47;;;;;;;6.80;3.80;;;8.70;99.90;;;;;;5018735;28;20204;-82
2021/11/25 00:53:14;;;;;;;9.07;4.70;;;8.60;99.90;;;;;;5016565;28;20180;-83
2021/11/25 00:55:41;;;;;;;5.47;3.30;;;8.70;99.90;;;;;;5036513;28;20425;-82
2021/11/25 00:58:07;;;;;;;3.92;2.85;;;8.70;99.90;;;;;;5020884;28;20181;-84
2021/11/25 01:00:33;;;;;;;3.72;2.60;;;8.70;99.90;;;;;;5036725;28;20179;-84
2021/11/25 01:02:59;;;;;;;4.90;3.35;;;8.70;99.90;;;;;;5036239;28;20244;-83
2021/11/25 01:05:25;;;;;;;5.87;4.40;;;8.70;99.90;;;;;;5018848;28;20560;-83
2021/11/25 01:07:51;;;;;;;8.43;3.67;;;8.60;99.90;;;;;;5019193;28;20187;-84
2021/11/25 01:10:21;;;;;;;7.03;3.43;;;8.60;99.90;;;;;;5003325;28;20623;-84
2021/11/25 01:12:49;;;;;;;5.35;3.70;;;8.60;99.90;;;;;;5038627;28;20541;-84
2021/11/25 01:15:17;;;;;;;4.13;3.38;;;8.60;99.90;;;;;;5019878;28;20679;-83
2021/11/25 01:17:44;;;;;;;5.53;3.10;;;8.60;99.90;;;;;;5001295;28;20174;-83
2021/11/25 01:20:14;;;;;;;7.30;3.40;;;8.60;99.90;;;;;;5016268;28;20177;-84
2021/11/25 01:22:41;;;;;;;5.75;3.63;;;8.60;99.90;;;;;;5016310;28;20181;-84
2021/11/25 01:25:07;;;;;;;7.65;3.40;;;8.70;99.90;;;;;;5033536;28;20197;-83
2021/11/25 01:27:33;;;;;;;7.20;3.30;;;8.60;99.90;;;;;;5016662;28;20610;-83
2021/11/25 01:29:58;;;;;;;7.43;3.63;;;8.60;99.90;;;;;;5018749;28;20237;-84
2021/11/25 01:32:24;;;;;;;7.23;4.10;;;8.60;99.90;;;;;;5017485;28;20185;-84
2021/11/25 01:34:50;;;;;;;8.53;4.27;;;8.60;99.90;;;;;;5017279;28;20217;-83
2021/11/25 01:37:16;;;;;;;6.07;3.30;;;8.60;99.90;;;;;;5035686;28;20201;-83
2021/11/25 01:39:41;;;;;;;5.53;3.40;;;8.60;99.90;;;;;;5018198;28;20248;-82
2021/11/25 01:42:07;;;;;;;3.27;2.83;;;8.60;99.90;;;;;;5017762;28;20177;-83
2021/11/25 01:44:33;;;;;;;3.30;3.00;;;8.60;99.90;;;;;;5035475;28;20185;-83
2021/11/25 01:47:03;;;;;;;4.83;3.33;;;8.60;99.90;;;;;;5001001;28;20271;-83
2021/11/25 01:49:29;;;;;;;3.55;2.95;;;8.60;99.90;;;;;;5035378;28;20339;-82
2021/11/25 01:51:55;;;;;;;4.43;3.80;;;8.50;99.90;;;;;;5034572;28;20166;-85
2021/11/25 01:54:20;;;;;;;4.47;2.90;;;8.60;99.90;;;;;;5018468;28;20169;-84
2021/11/25 01:56:46;;;;;;;8.30;4.23;;;8.60;99.90;;;;;;5019454;28;20177;-82
2021/11/25 01:59:12;;;;;;;7.13;4.50;;;8.50;99.90;;;;;;5019170;28;20173;-83
2021/11/25 02:01:38;;;;;;;7.83;5.17;;;8.50;99.90;;;;;;5037917;28;20651;-82
2021/11/25 02:04:06;;;;;;;6.50;4.10;;;8.50;99.90;;;;;;5037688;28;20170;-83
2021/11/25 02:06:32;;;;;;;10.02;6.25;;;8.40;99.90;;;;;;5038445;28;20500;-84
2021/11/25 02:08:59;;;;;;;9.98;5.35;;;8.40;99.90;;;;;;5019660;28;20188;-83
2021/11/25 02:11:25;;;;;;;7.05;4.75;;;8.40;99.90;;;;;;5038132;28;20248;-82
2021/11/25 02:13:51;;;;;;;8.27;5.80;;;8.40;99.90;;;;;;5020467;28;20704;-83
2021/11/25 02:16:18;;;;;;;8.57;5.28;;;8.40;99.90;;;;;;5021842;28;20248;-84
2021/11/25 02:18:44;;;;;;;7.75;4.95;;;8.30;99.90;;;;;;5039568;28;20165;-84
2021/11/25 02:21:09;;;;;;;10.40;5.80;;;8.30;99.90;;;;;;5038948;28;20172;-82
2021/11/25 02:23:35;;;;;;;8.27;4.60;;;8.40;99.90;;;;;;5020523;28;20277;-83
2021/11/25 02:26:02;;;;;;;9.23;6.13;;;8.30;99.90;;;;;;5020900;28;20232;-84
2021/11/25 02:28:37;;;;;;;11.02;7.05;;;8.30;99.90;;;;;;5039218;28;20496;-83
2021/11/25 02:31:04;;;;;;;8.98;5.95;;;8.30;99.90;;;;;;5005540;28;20220;-83
2021/11/25 02:33:30;;;;;;;12.63;6.78;;;8.40;99.90;;;;;;5021966;28;20165;-82
2021/11/25 02:35:56;;;;;;;10.35;6.85;;;8.40;99.90;;;;;;5021325;28;20190;-84
2021/11/25 02:38:22;;;;;;;10.70;6.43;;;8.30;99.90;;;;;;5021186;28;20180;-83
2021/11/25 02:40:51;;;;;;;8.07;6.25;;;8.30;99.90;;;;;;5038597;28;20443;-84
2021/11/25 02:43:19;;;;;;;11.35;6.97;;;8.30;99.90;;;;;;5005458;28;20208;-82
2021/11/25 02:46:08;;;;;;;14.77;7.50;;;8.20;99.90;;;;;;5022082;28;20217;-83
2021/11/25 02:48:39;;;;;;;11.63;7.32;;;8.20;99.90;;;;;;5040542;28;20241;-84
2021/11/25 02:51:05;;;;;;;16.70;8.15;;;8.20;99.90;;;;;;5021493;28;20236;-85
2021/11/25 02:53:34;;;;;;;17.73;8.50;;;8.20;99.90;;;;;;5020973;28;20170;-84
2021/11/25 02:56:06;;;;;;;11.80;7.50;;;8.10;99.90;;;;;;5020401;28;20756;-83
2021/11/25 02:58:31;;;;;;;12.40;7.60;;;8.10;99.90;;;;;;5052688;28;20196;-85
2021/11/25 03:01:00;;;;;;;14.50;8.30;;;8.10;99.90;;;;;;5040895;28;20177;-86
2021/11/25 03:03:26;;;;;;;11.77;7.90;;;8.10;99.90;;;;;;5040909;28;20385;-85
2021/11/25 03:05:52;;;;;;;15.83;9.17;;;8.10;99.90;;;;;;5052398;28;20197;-82
2021/11/25 03:08:21;;;;;;;18.40;8.93;;;8.10;99.90;;;;;;5005500;28;20182;-84
2021/11/25 03:11:08;;;;;;;13.50;9.13;;;8.10;99.90;;;;;;5021117;28;20224;-82
2021/11/25 03:13:36;;;;;;;12.85;8.13;;;8.10;99.90;;;;;;5020542;28;20372;-83
2021/11/25 03:16:03;;;;;;;14.23;7.88;;;8.20;99.90;;;;;;5013560;28;20193;-82
2021/11/25 03:18:29;;;;;;;15.93;9.00;;;8.10;99.90;;;;;;5001296;28;20301;-83
2021/11/25 03:20:56;;;;;;;16.52;10.05;;;8.10;99.90;;;;;;4978695;28;20260;-82
2021/11/25 03:23:24;;;;;;;16.40;8.07;;;8.00;99.90;;;;;;5037801;28;20172;-83
2021/11/25 03:25:51;;;;;;;13.85;9.15;;;8.00;99.90;;;;;;5041191;28;20299;-83
2021/11/25 03:28:17;;;;;;;14.57;9.02;;;8.00;99.90;;;;;;5039312;28;20212;-83
2021/11/25 03:30:44;;;;;;;14.30;8.23;;;8.00;99.90;;;;;;5020187;28;20216;-84
2021/11/25 03:33:14;;;;;;;14.98;8.63;;;8.10;99.90;;;;;;5026471;28;20178;-83
2021/11/25 03:35:40;;;;;;;16.35;8.63;;;8.10;99.90;;;;;;5007027;28;20284;-82
2021/11/25 03:38:06;;;;;;;17.77;10.63;;;8.10;99.90;;;;;;5019251;28;20216;-83
2021/11/25 03:40:33;;;;;;;16.88;10.23;;;8.10;99.90;;;;;;5003097;28;20188;-83
2021/11/25 03:42:59;;;;;;;18.42;10.50;;;8.00;99.90;;;;;;5019268;28;20169;-83
2021/11/25 03:45:25;;;;;;;21.48;11.77;;;8.10;99.90;;;;;;5036891;28;20200;-83
2021/11/25 03:47:51;;;;;;;20.05;10.05;;;8.10;99.90;;;;;;5037936;28;20197;-84
2021/11/25 03:50:17;;;;;;;18.13;9.87;;;8.10;99.90;;;;;;5020931;28;20196;-83
2021/11/25 03:52:43;;;;;;;16.80;10.07;;;8.10;99.90;;;;;;5044361;28;20219;-83
2021/11/25 03:55:12;;;;;;;20.80;10.50;;;8.10;99.90;;;;;;5037848;28;20212;-83
2021/11/25 03:57:38;;;;;;;19.20;10.35;;;8.10;99.90;;;;;;5030642;28;20200;-82
2021/11/25 04:00:11;;;;;;;18.70;9.97;;;8.00;99.90;;;;;;5036288;28;20173;-83
2021/11/25 04:02:37;;;;;;;17.52;10.23;;;8.00;99.90;;;;;;5003751;28;20185;-82
2021/11/25 04:05:03;;;;;;;18.67;10.30;;;8.00;99.90;;;;;;5036667;28;20181;-83
2021/11/25 04:07:29;;;;;;;18.30;9.45;;;7.90;99.90;;;;;;5036407;28;20463;-82
2021/11/25 04:09:55;;;;;;;20.63;10.30;;;7.90;99.90;;;;;;5018812;28;20205;-81
2021/11/25 04:12:20;;;;;;;20.43;8.97;;;8.00;99.90;;;;;;5020347;28;20204;-83
2021/11/25 04:14:46;;;;;;;19.07;11.13;;;8.00;99.90;;;;;;5003165;28;20194;-82
2021/11/25 04:17:13;;;;;;;21.33;9.87;;;8.00;99.90;;;;;;5036520;28;20179;-83
2021/11/25 04:19:38;;;;;;;20.58;9.70;;;7.90;99.90;;;;;;5036870;28;20180;-82
2021/11/25 04:22:04;;;;;;;15.00;8.83;;;7.90;99.90;;;;;;5036957;28;20169;-82
2021/11/25 04:24:30;;;;;;;17.67;9.10;;;7.90;99.90;;;;;;5036185;28;20316;-82
2021/11/25 04:26:55;;;;;;;20.73;9.30;;;7.90;99.90;;;;;;5036349;28;20287;-82
2021/11/25 04:29:23;;;;;;;18.77;9.60;;;7.90;99.90;;;;;;5036418;28;20213;-83
2021/11/25 04:37:17;;;;;;;23.02;10.98;;;7.90;99.90;;;;;;5021407;28;20175;-81
2021/11/25 04:39:43;;;;;;;20.93;11.27;;;7.80;99.90;;;;;;5001439;28;20268;-82
2021/11/25 04:42:10;;;;;;;22.73;12.30;;;7.80;99.90;;;;;;5018934;28;20177;-83
2021/11/25 04:44:36;;;;;;;20.08;12.52;;;7.80;99.90;;;;;;5018000;28;20165;-81
2021/11/25 04:47:02;;;;;;;23.13;12.40;;;7.80;99.90;;;;;;5002362;28;20675;-82
2021/11/25 04:49:27;;;;;;;24.90;11.77;;;7.80;99.90;;;;;;5036611;28;20455;-83
2021/11/25 04:51:53;;;;;;;28.07;13.23;;;7.80;99.90;;;;;;5018082;28;20176;-83
2021/11/25 04:54:19;;;;;;;20.30;11.23;;;7.80;99.90;;;;;;5018099;28;20165;-83
2021/11/25 04:56:44;;;;;;;27.63;12.70;;;7.80;99.90;;;;;;5002580;28;20256;-84
2021/11/25 04:59:10;;;;;;;22.97;11.93;;;7.80;99.90;;;;;;5036677;28;20166;-83
2021/11/25 05:01:39;;;;;;;25.87;12.27;;;7.80;99.90;;;;;;5018215;28;20224;-83
2021/11/25 05:04:04;;;;;;;22.88;11.10;;;7.80;99.90;;;;;;5001258;28;20559;-83
2021/11/25 05:06:30;;;;;;;24.33;12.90;;;7.80;99.90;;;;;;5017785;28;20227;-84
2021/11/25 05:08:56;;;;;;;23.05;11.68;;;7.80;99.90;;;;;;5036341;28;20174;-83
2021/11/25 05:11:22;;;;;;;24.73;12.10;;;7.80;99.90;;;;;;5019559;28;20331;-83
2021/11/25 05:13:48;;;;;;;24.20;12.57;;;7.80;99.90;;;;;;5002112;28;20648;-82
2021/11/25 05:16:13;;;;;;;22.10;10.97;;;7.80;99.90;;;;;;5017606;28;20259;-82
2021/11/25 05:18:39;;;;;;;31.27;11.73;;;7.80;99.90;;;;;;5035225;28;20169;-82
2021/11/25 05:21:05;;;;;;;21.83;12.00;;;7.80;99.90;;;;;;5036534;28;20304;-83
2021/11/25 05:23:30;;;;;;;27.83;13.20;;;7.80;99.90;;;;;;5002847;28;20181;-81
2021/11/25 05:25:56;;;;;;;24.50;12.27;;;7.80;99.90;;;;;;5018533;28;20196;-82
2021/11/25 05:28:22;;;;;;;19.13;11.80;;;7.80;99.90;;;;;;5024448;28;20182;-81
2021/11/25 05:30:47;;;;;;;24.93;13.03;;;7.70;99.90;;;;;;4994277;28;20201;-82
2021/11/25 05:33:16;;;;;;;22.47;12.17;;;7.70;99.90;;;;;;5015180;28;20426;-81
2021/11/25 05:35:42;;;;;;;24.35;11.98;;;7.70;99.90;;;;;;4994496;28;20645;-82
2021/11/25 05:38:07;;;;;;;22.73;12.40;;;7.70;99.90;;;;;;5032827;28;20189;-81
2021/11/25 05:40:33;;;;;;;24.23;12.33;;;7.70;99.90;;;;;;5028349;28;20185;-81
2021/11/25 05:42:59;;;;;;;34.30;15.10;;;7.70;99.90;;;;;;5041154;28;20179;-82
2021/11/25 05:45:26;;;;;;;20.90;11.47;;;7.70;99.90;;;;;;5041431;28;20276;-82
2021/11/25 05:47:52;;;;;;;24.60;11.57;;;7.70;99.90;;;;;;5039289;28;20404;-83
2021/11/25 05:50:22;;;;;;;26.55;12.25;;;7.70;99.90;;;;;;5020369;28;20208;-83
2021/11/25 05:52:50;;;;;;;24.05;12.50;;;7.70;99.90;;;;;;5019815;28;20170;-84
2021/11/25 05:55:16;;;;;;;23.63;12.65;;;7.60;99.90;;;;;;5051823;28;20277;-83
2021/11/25 05:57:42;;;;;;;27.38;11.77;;;7.60;99.90;;;;;;5043319;28;20177;-83
2021/11/25 06:00:13;;;;;;;24.93;13.60;;;7.60;99.90;;;;;;5039288;28;20534;-83
2021/11/25 06:02:44;;;;;;;24.48;13.15;;;7.70;99.90;;;;;;5022386;28;20645;-83
2021/11/25 06:05:11;;;;;;;27.00;12.90;;;7.80;99.90;;;;;;5039551;28;20193;-83
2021/11/25 06:07:41;;;;;;;18.35;11.00;;;7.70;99.90;;;;;;5039048;28;20170;-82
2021/11/25 06:10:07;;;;;;;22.70;12.68;;;7.70;99.90;;;;;;5005019;28;20305;-83
2021/11/25 06:12:33;;;;;;;25.08;12.85;;;7.70;99.90;;;;;;5039472;28;20170;-82
2021/11/25 06:14:59;;;;;;;23.23;11.30;;;7.70;99.90;;;;;;5022417;28;20276;-82
2021/11/25 06:17:24;;;;;;;25.30;12.00;;;7.60;99.90;;;;;;5040207;28;20695;-82
2021/11/25 06:19:53;;;;;;;20.60;10.77;;;7.60;99.90;;;;;;5018189;28;20177;-82
2021/11/25 06:22:20;;;;;;;20.20;11.95;;;7.60;99.90;;;;;;5020141;28;20266;-83
2021/11/25 06:24:48;;;;;;;20.58;11.32;;;7.50;99.90;;;;;;5008010;28;20193;-83
2021/11/25 06:27:14;;;;;;;28.20;12.40;;;7.50;99.90;;;;;;5005597;28;20197;-83
2021/11/25 06:29:40;;;;;;;27.93;12.23;;;7.50;99.90;;;;;;5039860;28;20542;-83
2021/11/25 06:32:07;;;;;;;20.63;11.73;;;7.50;99.90;;;;;;5022366;28;20192;-84
2021/11/25 06:34:32;;;;;;;34.80;12.75;;;7.60;99.90;;;;;;5040155;28;20180;-84
2021/11/25 06:36:58;;;;;;;24.00;12.97;;;7.60;99.90;;;;;;5034626;28;20170;-82
2021/11/25 06:39:24;;;;;;;25.53;12.57;;;7.50;99.90;;;;;;5020940;28;20597;-84
2021/11/25 06:41:50;;;;;;;20.03;11.40;;;7.40;99.90;;;;;;5002587;28;20209;-84
2021/11/25 06:44:15;;;;;;;23.80;11.70;;;7.40;99.90;;;;;;5006219;28;20629;-85
2021/11/25 06:46:41;;;;;;;19.47;10.27;;;7.40;99.90;;;;;;5020021;28;20699;-84
2021/11/25 06:49:07;;;;;;;26.83;14.77;;;7.40;99.90;;;;;;5034630;28;20908;-85
2021/11/25 06:51:33;;;;;;;28.05;12.05;;;7.40;99.90;;;;;;5004864;28;20193;-85
2021/11/25 06:54:00;;;;;;;22.63;12.30;;;7.40;99.90;;;;;;5003879;28;20245;-85
2021/11/25 06:56:28;;;;;;;22.77;11.18;;;7.50;99.90;;;;;;4986476;28;20532;-85
2021/11/25 06:58:56;;;;;;;24.80;12.90;;;7.50;99.90;;;;;;5020539;28;20339;-86
2021/11/25 07:01:22;;;;;;;26.67;13.25;;;7.60;99.90;;;;;;5021214;28;20266;-85
2021/11/25 07:03:48;;;;;;;24.42;12.48;;;7.50;99.90;;;;;;5003584;28;20602;-85
2021/11/25 07:06:14;;;;;;;23.00;10.60;;;7.50;99.90;;;;;;5021210;28;20194;-85
2021/11/25 07:08:39;;;;;;;24.43;11.53;;;7.40;99.90;;;;;;5002892;28;20186;-84
2021/11/25 07:11:05;;;;;;;21.40;12.17;;;7.40;99.90;;;;;;5020472;28;20194;-84
2021/11/25 07:13:31;;;;;;;22.93;10.50;;;7.40;99.90;;;;;;4999846;28;20182;-86
2021/11/25 07:15:57;;;;;;;22.97;12.27;;;7.40;99.90;;;;;;5002431;28;20424;-86
2021/11/25 07:18:23;;;;;;;27.90;13.37;;;7.40;99.90;;;;;;5002016;28;20182;-83
2021/11/25 07:20:48;;;;;;;20.97;10.53;;;7.40;99.90;;;;;;4985884;28;20209;-84
2021/11/25 07:23:14;;;;;;;31.73;11.23;;;7.40;99.90;;;;;;5024870;28;20182;-82
2021/11/25 07:25:46;;;;;;;22.25;12.63;;;7.40;99.90;;;;;;5020956;28;20428;-86
2021/11/25 07:28:12;;;;;;;27.70;11.27;;;7.40;99.90;;;;;;5039628;28;20174;-86
2021/11/25 07:30:38;;;;;;;19.80;11.20;;;7.50;99.90;;;;;;5020629;28;20308;-83
2021/11/25 07:33:04;;;;;;;24.53;10.93;;;7.70;99.90;;;;;;5021740;28;20323;-82
2021/11/25 07:35:29;;;;;;;28.20;9.80;;;7.80;99.90;;;;;;5020654;28;20443;-82
2021/11/25 07:37:59;;;;;;;23.50;11.67;;;7.80;99.90;;;;;;5020653;28;20193;-83
2021/11/25 07:40:26;;;;;;;29.83;11.68;;;7.80;99.90;;;;;;4989012;28;20200;-82
2021/11/25 07:42:52;;;;;;;25.67;12.93;;;7.90;99.90;;;;;;5019688;28;20647;-83
2021/11/25 07:45:19;;;;;;;28.15;13.80;;;8.00;99.90;;;;;;5015931;28;20201;-82
2021/11/25 07:47:45;;;;;;;24.17;12.57;;;8.10;99.90;;;;;;5040248;28;20173;-86
2021/11/25 07:50:15;;;;;;;25.33;11.50;;;8.00;99.90;;;;;;4995712;28;20193;-86
2021/11/25 07:52:43;;;;;;;25.00;11.68;;;7.80;99.90;;;;;;5021016;28;20236;-86
2021/11/25 07:55:19;;;;;;;27.73;12.88;;;7.70;99.90;;;;;;5005914;28;20196;-84
2021/11/25 07:57:51;;;;;;;21.85;11.73;;;7.90;99.90;;;;;;5030297;28;20161;-85
2021/11/25 08:00:40;;;;;;;24.23;12.60;;;8.00;99.90;;;;;;5038492;28;20177;-85
2021/11/25 08:03:39;;;;;;;;;;;;;;;;;;;;;
2021/11/25 08:06:40;;;;;;;31.42;11.90;;;8.40;99.90;;;;;;5019415;28;20258;-83
2021/11/25 08:09:05;;;;;;;19.63;9.73;;;8.50;99.90;;;;;;5000447;28;20237;-83
2021/11/25 08:11:31;;;;;;;21.67;10.30;;;8.50;99.90;;;;;;4995320;28;20631;-83
2021/11/25 08:13:57;;;;;;;25.90;13.43;;;8.40;99.90;;;;;;5016969;28;20177;-82
2021/11/25 08:16:23;;;;;;;21.67;11.90;;;8.10;99.90;;;;;;5028158;28;20205;-82
2021/11/25 08:18:48;;;;;;;22.57;10.63;;;7.90;99.90;;;;;;5041193;28;20174;-82
2021/11/25 08:21:14;;;;;;;28.00;12.80;;;7.90;99.90;;;;;;5047919;28;20177;-82
2021/11/25 08:23:40;;;;;;;28.90;13.87;;;7.80;99.90;;;;;;5033537;28;20645;-82
2021/11/25 08:26:07;;;;;;;20.90;11.27;;;7.70;99.90;;;;;;5015182;28;20823;-81
2021/11/25 08:28:34;;;;;;;21.88;10.50;;;7.70;99.90;;;;;;5011699;28;20424;-81
2021/11/25 08:31:04;;;;;;;24.02;10.18;;;7.60;99.90;;;;;;5036627;28;20208;-82
2021/11/25 08:33:30;;;;;;;26.65;12.38;;;7.50;99.90;;;;;;5035822;28;20243;-81
2021/11/25 08:35:56;;;;;;;22.53;11.03;;;7.40;99.90;;;;;;5019310;28;20197;-81
2021/11/25 08:38:22;;;;;;;23.27;11.20;;;7.50;99.90;;;;;;5033461;28;20194;-82
2021/11/25 08:40:48;;;;;;;21.02;11.40;;;7.30;99.90;;;;;;5016785;28;20421;-82
2021/11/25 08:43:14;;;;;;;24.27;10.23;;;7.30;99.90;;;;;;5019608;28;20192;-80
2021/11/25 08:45:40;;;;;;;22.27;12.02;;;7.40;99.90;;;;;;5003338;28;20489;-79
2021/11/25 08:48:07;;;;;;;24.30;13.00;;;7.50;99.90;;;;;;5019132;28;20177;-82
2021/11/25 08:50:33;;;;;;;22.20;10.43;;;7.50;99.90;;;;;;5032670;28;20226;-81
2021/11/25 08:52:59;;;;;;;20.10;10.02;;;7.40;99.90;;;;;;5018229;28;20177;-80
2021/11/25 08:55:27;;;;;;;22.40;11.10;;;7.50;99.90;;;;;;5017314;28;20190;-83
2021/11/25 08:57:53;;;;;;;22.73;12.00;;;7.40;99.90;;;;;;5030835;28;20177;-83
2021/11/25 09:00:22;;;;;;;27.37;12.23;;;7.50;99.90;;;;;;5037615;28;20226;-82
2021/11/25 09:02:48;;;;;;;25.20;13.18;;;7.60;99.90;;;;;;5023300;28;20185;-83
2021/11/25 09:05:14;;;;;;;21.17;12.53;;;7.60;99.90;;;;;;5034497;28;20764;-81
2021/11/25 09:07:40;;;;;;;18.83;10.63;;;7.70;99.90;;;;;;5037105;28;20267;-82
2021/11/25 09:10:07;;;;;;;21.73;11.23;;;7.70;99.90;;;;;;5005080;28;20228;-81
2021/11/25 09:12:33;;;;;;;21.42;12.02;;;7.80;99.90;;;;;;5036865;28;20412;-82
2021/11/25 09:14:59;;;;;;;27.47;11.37;;;7.70;99.90;;;;;;5023167;28;20224;-84
2021/11/25 09:17:25;;;;;;;20.65;10.07;;;7.80;99.90;;;;;;5002778;28;20646;-83
2021/11/25 09:19:51;;;;;;;23.40;12.47;;;7.80;99.90;;;;;;5004912;28;20185;-82
2021/11/25 09:22:17;;;;;;;22.13;10.93;;;7.80;99.90;;;;;;5033543;28;20928;-83
2021/11/25 09:24:43;;;;;;;19.63;11.10;;;7.70;99.90;;;;;;5017328;28;20283;-82
2021/11/25 09:27:08;;;;;;;25.73;11.85;;;7.70;99.90;;;;;;5033046;28;20196;-81
2021/11/25 09:29:34;;;;;;;27.87;13.57;;;7.80;99.90;;;;;;5026632;28;20273;-81
2021/11/25 09:32:00;;;;;;;19.50;10.47;;;7.90;99.90;;;;;;5011927;28;20274;-82
2021/11/25 09:34:26;;;;;;;21.57;10.23;;;7.80;99.90;;;;;;4999115;28;20190;-84
2021/11/25 09:36:52;;;;;;;21.53;11.40;;;7.80;99.90;;;;;;5005663;28;20253;-82
2021/11/25 09:39:17;;;;;;;23.40;12.43;;;7.90;99.90;;;;;;5038389;28;20282;-82
2021/11/25 09:41:43;;;;;;;23.73;12.17;;;7.90;99.90;;;;;;5008698;28;20420;-81
2021/11/25 09:44:09;;;;;;;30.53;12.20;;;7.90;99.90;;;;;;5010557;28;20434;-81
2021/11/25 09:46:36;;;;;;;23.00;12.37;;;7.90;99.90;;;;;;5020929;28;20193;-81
2021/11/25 09:49:03;;;;;;;23.73;10.35;;;7.90;99.90;;;;;;5001244;28;20185;-82
2021/11/25 09:51:28;;;;;;;22.25;12.23;;;7.90;99.90;;;;;;5021054;28;20207;-81
2021/11/25 09:53:55;;;;;;;25.97;14.07;;;8.00;99.90;;;;;;4986324;28;20198;-81
2021/11/25 09:56:22;;;;;;;21.23;11.75;;;8.00;99.90;;;;;;5015005;28;20225;-83
2021/11/25 09:58:50;;;;;;;17.92;10.88;;;8.00;99.90;;;;;;5021911;28;20172;-84
2021/11/25 10:01:20;;;;;;;23.63;11.48;;;8.00;99.90;;;;;;5013473;28;20173;-82
2021/11/25 10:03:51;;;;;;;24.23;12.70;;;8.10;99.90;;;;;;5042951;28;20169;-82
2021/11/25 10:06:19;;;;;;;16.50;9.82;;;8.10;99.90;;;;;;5006439;28;20343;-81
2021/11/25 10:08:52;;;;;;;21.45;11.68;;;8.10;99.90;;;;;;5039245;28;20193;-83
2021/11/25 10:11:24;;;;;;;23.98;11.50;;;8.10;99.90;;;;;;5011197;28;20288;-81
2021/11/25 10:13:56;;;;;;;16.25;9.77;;;7.90;99.90;;;;;;5001927;28;20178;-81
2021/11/25 10:16:31;;;;;;;22.73;11.20;;;7.90;99.90;;;;;;5002069;28;20201;-80
2021/11/25 10:19:27;;;;;;;22.13;11.38;;;8.00;99.90;;;;;;5002375;28;20200;-81
2021/11/25 10:21:56;;;;;;;20.38;9.90;;;7.90;99.90;;;;;;4987159;28;20178;-80
2021/11/25 10:24:45;;;;;;;27.00;12.75;;;7.80;99.90;;;;;;5005855;28;20178;-81
2021/11/25 10:27:27;;;;;;;20.75;11.05;;;7.70;99.90;;;;;;5021601;28;20195;-82
2021/11/25 10:30:11;;;;;;;23.08;10.88;;;7.60;99.90;;;;;;5026981;28;20212;-80
2021/11/25 10:32:38;;;;;;;24.25;12.13;;;7.80;99.90;;;;;;5017247;28;20167;-80
2021/11/25 10:35:21;;;;;;;21.27;11.55;;;7.80;99.90;;;;;;5030594;28;20204;-80
2021/11/25 10:38:24;;;;;;;19.48;10.98;;;7.80;99.90;;;;;;5018968;28;20185;-80
2021/11/25 10:40:39;;;;;;;20.25;10.13;;;7.70;99.90;;;;;;5035557;28;20272;-79
2021/11/25 10:43:19;;;;;;;20.35;11.07;;;7.80;99.90;;;;;;5020075;28;20180;-80
2021/11/25 10:45:48;;;;;;;27.65;12.75;;;7.70;99.90;;;;;;5047182;28;20261;-80
2021/11/25 10:48:29;;;;;;;20.90;10.25;;;7.70;99.90;;;;;;5030147;28;20194;-82
2021/11/25 10:50:55;;;;;;;34.55;12.55;;;7.70;99.90;;;;;;5011395;28;20300;-82
2021/11/25 10:53:21;;;;;;;17.98;11.45;;;7.60;99.90;;;;;;5021651;28;20170;-80
2021/11/25 10:55:46;;;;;;;18.53;11.17;;;7.60;99.90;;;;;;5038609;28;20288;-81
2021/11/25 10:58:12;;;;;;;17.90;9.80;;;7.60;99.90;;;;;;5004756;28;20252;-82
2021/11/25 11:00:41;;;;;;;26.33;11.80;;;7.60;99.90;;;;;;5038279;28;20173;-81
2021/11/25 11:03:07;;;;;;;22.77;11.30;;;7.70;99.90;;;;;;5020451;28;20413;-80
2021/11/25 11:06:01;;;;;;;19.30;9.90;;;7.80;99.90;;;;;;5034115;28;20328;-83
2021/11/25 11:08:39;;;;;;;24.77;12.10;;;7.80;99.90;;;;;;5005673;28;20273;-84
2021/11/25 11:11:07;;;;;;;25.35;12.15;;;7.90;99.90;;;;;;5013088;28;20237;-82
2021/11/25 11:13:49;;;;;;;24.58;12.32;;;7.90;99.90;;;;;;5001393;28;20181;-83
2021/11/25 11:16:27;;;;;;;19.23;10.75;;;7.90;99.90;;;;;;5018279;28;20246;-83
2021/11/25 11:18:56;;;;;;;20.65;11.02;;;7.90;99.90;;;;;;5000922;28;20181;-82
2021/11/25 11:21:52;;;;;;;23.10;10.73;;;7.80;99.90;;;;;;5005788;28;20642;-83
2021/11/25 11:24:27;;;;;;;27.23;11.35;;;7.70;99.90;;;;;;5032878;28;20272;-82
2021/11/25 11:27:10;;;;;;;21.13;10.82;;;7.70;99.90;;;;;;5010476;28;20193;-81
2021/11/25 11:29:37;;;;;;;25.88;12.10;;;7.60;99.90;;;;;;5014788;28;20307;-81
2021/11/25 11:32:06;;;;;;;22.00;11.52;;;7.60;99.90;;;;;;4972264;28;20543;-84
2021/11/25 11:34:33;;;;;;;25.40;12.10;;;7.60;99.90;;;;;;4987960;28;20169;-82
2021/11/25 11:37:00;;;;;;;23.70;12.00;;;7.70;99.90;;;;;;5009781;28;20200;-85
2021/11/25 11:39:28;;;;;;;24.55;12.15;;;7.70;99.90;;;;;;4992320;28;20184;-82
2021/11/25 11:42:01;;;;;;;33.55;12.80;;;7.70;99.90;;;;;;5008627;28;20574;-83
2021/11/25 11:44:27;;;;;;;26.67;12.82;;;7.70;99.90;;;;;;5008085;28;20181;-82
2021/11/25 11:47:07;;;;;;;21.10;11.27;;;7.70;99.90;;;;;;4991650;28;20678;-83
2021/11/25 11:49:33;;;;;;;20.30;11.00;;;7.70;99.90;;;;;;5028557;28;20456;-84
2021/11/25 11:52:08;;;;;;;31.17;13.88;;;7.80;99.90;;;;;;5011653;28;20177;-83
2021/11/25 11:54:56;;;;;;;25.67;13.45;;;7.90;99.90;;;;;;5005920;28;20224;-82
2021/11/25 11:57:30;;;;;;;27.27;13.98;;;7.60;99.90;;;;;;5025108;28;20166;-84
2021/11/25 11:59:58;;;;;;;21.40;12.27;;;7.70;99.90;;;;;;5022898;28;20542;-82
2021/11/25 12:02:45;;;;;;;24.15;12.15;;;7.80;99.90;;;;;;5034582;28;20179;-83
2021/11/25 12:05:11;;;;;;;28.95;13.48;;;7.70;99.90;;;;;;5025058;28;20197;-82
2021/11/25 12:07:37;;;;;;;31.15;15.15;;;7.70;99.90;;;;;;5011873;28;21350;-83
2021/11/25 12:10:05;;;;;;;30.83;13.60;;;7.70;99.90;;;;;;5000798;28;20197;-83
2021/11/25 12:12:31;;;;;;;33.20;13.32;;;7.60;99.90;;;;;;5000730;28;20174;-84
2021/11/25 12:14:59;;;;;;;23.77;12.50;;;7.70;99.90;;;;;;5023874;28;20200;-82
2021/11/25 12:17:34;;;;;;;27.70;13.65;;;7.70;99.90;;;;;;5009589;28;20420;-82
2021/11/25 12:20:33;;;;;;;27.48;14.93;;;7.80;99.90;;;;;;5031244;28;20177;-82
2021/11/25 12:22:59;;;;;;;19.33;12.05;;;7.60;99.90;;;;;;5018868;28;20256;-79
2021/11/25 12:25:39;;;;;;;24.80;13.13;;;7.40;99.90;;;;;;5004263;28;20225;-80
2021/11/25 12:28:27;;;;;;;20.35;12.15;;;7.40;99.90;;;;;;5012217;28;20711;-85
2021/11/25 12:31:06;;;;;;;27.90;15.27;;;7.40;99.90;;;;;;5032222;28;20212;-83
2021/11/25 12:33:42;;;;;;;37.67;15.02;;;7.50;99.90;;;;;;5007812;28;20178;-81
2021/11/25 12:36:09;;;;;;;25.45;13.45;;;7.60;99.90;;;;;;5010659;28;20247;-83
2021/11/25 12:38:38;;;;;;;24.15;13.55;;;7.50;99.90;;;;;;4995649;28;20261;-84
2021/11/25 12:41:10;;;;;;;26.92;13.25;;;7.60;99.90;;;;;;4988111;28;20605;-82
2021/11/25 12:43:41;;;;;;;28.75;13.73;;;7.60;99.90;;;;;;5013916;28;20201;-82
2021/11/25 12:46:11;;;;;;;23.85;12.50;;;7.60;99.90;;;;;;5012344;28;20231;-82
2021/11/25 12:48:41;;;;;;;28.23;14.38;;;7.60;99.90;;;;;;5024750;28;20203;-83
2021/11/25 12:51:19;;;;;;;28.48;12.43;;;7.60;99.90;;;;;;5032344;28;20201;-83
2021/11/25 12:53:52;;;;;;;22.13;11.13;;;7.60;99.90;;;;;;5031297;28;20215;-84
2021/11/25 12:56:23;;;;;;;22.85;13.27;;;7.60;99.90;;;;;;5036879;28;20213;-82